Flight Track Log - Related Links

Times and Time Zones

All times are in EDT time to prevent confusion due to time zone crossing. See the FLG3709 flight status page for this flight to view local times or setup timezone preferences in your user account.

Time Position Orientation Groundspeed Altitude Reporting Facility
EDT Latitude Longitude Course Direction KTS MPH feet Rate Location/Type
Sun 07:14:56 AM 40.5092 -80.5258 265° West 236 272 10,000  Level Cleveland Center
Sun 07:15:56 AM 40.5069 -80.6214 268° West 243 280 11,600 1,550 Climbing Cleveland Center
Sun 07:16:56 AM 40.5047 -80.7333 269° West 279 321 13,100 1,600 Climbing Cleveland Center
Sun 07:17:00 AM 40.4667 -80.8543 270° West  Level FlightAware Approximate
Sun 07:17:56 AM 40.5006 -80.8425 267° West 303 349 14,800  Level Cleveland Center
Sun 07:18:00 AM 40.4667 -80.9609 270° West  Level FlightAware Approximate
Sun 07:19:00 AM 40.4667 -81.0676 270° West  Level FlightAware Approximate
Sun 07:19:30 AM 40.4944 -81.0275 268° West 328 377 17,000  Level Indianapolis Center
Sun 07:20:00 AM 40.4642 -81.1741 265° West  Level FlightAware Approximate
Sun 07:20:31 AM 40.4914 -81.1506 268° West 335 386 18,500  Level Indianapolis Center
Sun 07:21:32 AM 40.4853 -81.2953 267° West 336 387 20,100 1,279 Climbing Indianapolis Center
Sun 07:22:33 AM 40.4828 -81.4000 268° West 339 390 21,100 934 Climbing Indianapolis Center
Sun 07:23:34 AM 40.4781 -81.5472 268° West 342 394 22,000 443 Climbing Indianapolis Center
Sun 07:24:35 AM 40.4681 -81.6764 264° West 352 405 22,000  Level Indianapolis Center
Sun 07:25:36 AM 40.4214 -81.7964 243° Southwest 361 415 22,000  Level Indianapolis Center
Sun 07:26:37 AM 40.3742 -81.9183 243° Southwest 369 425 22,000  Level Indianapolis Center
Sun 07:27:38 AM 40.3250 -82.0369 241° Southwest 368 423 22,000  Level Indianapolis Center
Sun 07:28:39 AM 40.2767 -82.1572 242° Southwest 369 425 22,000  Level Indianapolis Center
Sun 07:29:39 AM 40.2331 -82.2672 243° Southwest 369 425 22,000  Level Indianapolis Center
Sun 07:30:40 AM 40.1853 -82.3856 242° Southwest 367 422 22,000  Level Indianapolis Center
Sun 07:31:41 AM 40.1372 -82.5047 242° Southwest 367 422 22,000  Level Indianapolis Center
Sun 07:32:42 AM 40.0883 -82.6250 242° Southwest 368 423 22,000 -49 Level Indianapolis Center
Sun 07:33:43 AM 40.0392 -82.7442 242° Southwest 369 425 21,900 -541 Descending Indianapolis Center
Sun 07:34:44 AM 39.9903 -82.8628 242° Southwest 366 421 20,900 -885 Descending Indianapolis Center
Sun 07:35:45 AM 39.9406 -82.9817 241° Southwest 370 426 20,100 -639 Descending Indianapolis Center
Sun 07:36:46 AM 39.8928 -83.0981 242° Southwest 363 418 19,600 -492 Descending Indianapolis Center
Sun 07:37:47 AM 39.8453 -83.2117 241° Southwest 355 409 19,100 -492 Descending Indianapolis Center
Sun 07:38:48 AM 39.7981 -83.3242 241° Southwest 350 403 18,600 -639 Descending Indianapolis Center
Sun 07:39:49 AM 39.7500 -83.4381 241° Southwest 348 400 17,800 -976 Descending Indianapolis Center
Sun 07:40:51 AM 39.7019 -83.5533 242° Southwest 352 405 16,600 -1,220 Descending Indianapolis Center
Sun 07:41:52 AM 39.6564 -83.6611 241° Southwest 339 390 15,300 -1,279 Descending Indianapolis Center
Sun 07:42:53 AM 39.6139 -83.7628 242° Southwest 321 369 14,000 -1,279 Descending Indianapolis Center
Sun 07:43:54 AM 39.5719 -83.8603 241° Southwest 308 354 12,700 -1,328 Descending Indianapolis Center
Sun 07:44:55 AM 39.5308 -83.9561 241° Southwest 303 349 11,300 -885 Descending Indianapolis Center
Sun 07:45:56 AM 39.4900 -84.0514 241° Southwest 301 346 10,900 -148 Descending Indianapolis Center
Sun 07:46:57 AM 39.4392 -84.1394 233° Southwest 302 348 11,000 -246 Climbing Indianapolis Center
Sun 07:47:58 AM 39.4064 -84.2258 244° Southwest 271 312 10,400 -885 Descending Indianapolis Center
Sun 07:48:59 AM 39.3783 -84.3022 245° Southwest 239 275 9,200 -1,426 Descending Indianapolis Center
Sun 07:50:00 AM 39.3497 -84.3783 244° Southwest 233 268 7,500 -1,525 Descending Indianapolis Center
Sun 07:51:01 AM 39.3164 -84.4497 239° Southwest 231 266 6,100 -787 Descending Indianapolis Center
Sun 07:52:02 AM 39.2742 -84.5097 228° Southwest 224 258 5,900 -689 Descending Indianapolis Center
Sun 07:53:03 AM 39.2258 -84.5781 228° Southwest 220 253 4,700 -984 Descending Indianapolis Center
Sun 07:54:04 AM 39.1892 -84.6267 226° Southwest 197 227 3,900 -882 Descending Indianapolis Center
Sun 07:54:45 AM 39.1667 -84.6500 219° Southwest 155 178 3,200 -1,011 Descending Cincinnati TRACON
Sun 07:55:39 AM 39.1333 -84.6667 201° Southwest 145 167 2,300 -842 Descending Cincinnati TRACON
Sun 07:56:39 AM 39.1000 -84.6667 180° South 132 152 1,600 -700 Descending Cincinnati TRACON
Sun 07:58:00 AM 39.0488 -84.6678 38° Northeast  Level Estimated

Login

Don't have an account? Register now (free) for customized features, flight alerts, and more!